Arbor Vitae, Wisconsin
Current Conditions -  °F | °C
As of 9:35 PM on Monday 22 Dec 2014 (Local Time) from KARV Reporting Station
Light Snow Light Snow  
Wind Chill: 25°   Ceiling: 1100
Heat Index: 32°   Visibility: 3mi
Dew Point: 30°   Wind: 8mph
Humidity: 92%   Direction: 110°ESE
Pressure: 29.72"   Gusts: NA
Location:  45.9553°N, 89.6779°W
Report Text: KARV 230335Z AUTO 11007KT 3SM -SN BKN011 BKN046 OVC070 00/M01 A2972 RMK AO2 T00001012
Loading
Personal Weather Stations






























Interactive Weather Map New forecast layout! Learn more

10-Day Weather Forecast

Advertisements
Track Severe Weather on mobile